Time;durP1;ratioP1;P1;durP2;ratioP2;P2;SDS_P1;SDS_P2;PMS_P1;PMS_P2;Temp;Humidity;BMP_temperature;BMP_pressure;BME280_temperature;BME280_humidity;BME280_pressure;Samples;Min_cycle;Max_cycle;Signal;HPM_P1;HPM_P2
2022/09/21 00:00:01;;;;;;;9.40;5.43;;;9.40;99.90;;;;;;4966784;28;20384;-67
2022/09/21 00:02:30;;;;;;;6.55;4.28;;;9.40;99.90;;;;;;4971880;28;20046;-67
2022/09/21 00:04:56;;;;;;;8.25;4.68;;;9.40;99.90;;;;;;4951067;28;20081;-67
2022/09/21 00:07:21;;;;;;;7.63;4.32;;;9.40;99.90;;;;;;4966897;28;20156;-67
2022/09/21 00:09:48;;;;;;;6.60;4.35;;;9.40;99.90;;;;;;4979911;28;20408;-67
2022/09/21 00:12:14;;;;;;;10.50;4.68;;;9.30;99.90;;;;;;4971347;28;20057;-67
2022/09/21 00:14:40;;;;;;;8.73;5.32;;;9.30;99.90;;;;;;4965230;28;20130;-67
2022/09/21 00:17:06;;;;;;;9.00;4.40;;;9.30;99.90;;;;;;4970370;28;20054;-67
2022/09/21 00:19:33;;;;;;;9.77;5.47;;;9.30;99.90;;;;;;4979792;28;20046;-68
2022/09/21 00:21:59;;;;;;;10.10;4.43;;;9.30;99.90;;;;;;4952623;28;20840;-67
2022/09/21 00:24:25;;;;;;;9.18;4.57;;;9.30;99.90;;;;;;4961863;28;20054;-68
2022/09/21 00:26:51;;;;;;;10.15;5.85;;;9.40;99.90;;;;;;4976054;28;20140;-68
2022/09/21 00:29:16;;;;;;;9.93;5.07;;;9.30;99.90;;;;;;4978847;28;20137;-68
2022/09/21 00:31:42;;;;;;;9.40;5.05;;;9.30;99.90;;;;;;4970726;28;20046;-67
2022/09/21 00:34:08;;;;;;;8.90;4.10;;;9.30;99.90;;;;;;4980445;28;20057;-68
2022/09/21 00:36:34;;;;;;;9.60;4.82;;;9.30;99.90;;;;;;4959997;28;20046;-68
2022/09/21 00:39:00;;;;;;;9.65;5.95;;;9.30;99.90;;;;;;4975505;28;20492;-68
2022/09/21 00:41:26;;;;;;;10.20;4.80;;;9.30;99.90;;;;;;4953818;28;20358;-68
2022/09/21 00:44:17;;;;;;;10.85;5.82;;;9.30;99.90;;;;;;4942844;28;20593;-67
2022/09/21 00:46:43;;;;;;;13.85;6.28;;;9.30;99.90;;;;;;4971864;28;20631;-67
2022/09/21 00:49:10;;;;;;;11.77;6.47;;;9.20;99.90;;;;;;4947577;28;20108;-67
2022/09/21 00:51:36;;;;;;;10.98;5.30;;;9.30;99.90;;;;;;4943158;28;20042;-68
2022/09/21 00:54:07;;;;;;;9.95;5.32;;;9.30;99.90;;;;;;4986702;28;20038;-67
2022/09/21 00:56:33;;;;;;;8.57;4.65;;;9.30;99.90;;;;;;4977875;28;20046;-67
2022/09/21 00:59:02;;;;;;;8.45;5.13;;;9.30;99.90;;;;;;4977178;28;20512;-67
2022/09/21 01:01:28;;;;;;;7.82;4.80;;;9.30;99.90;;;;;;4963543;28;20054;-67
2022/09/21 01:03:55;;;;;;;7.63;4.35;;;9.30;99.90;;;;;;4961521;28;20559;-67
2022/09/21 01:06:21;;;;;;;8.75;5.05;;;9.30;99.90;;;;;;4970360;28;20090;-67
2022/09/21 01:08:51;;;;;;;7.45;4.95;;;9.30;99.90;;;;;;4984733;28;20105;-68
2022/09/21 01:11:29;;;;;;;7.53;4.32;;;9.30;99.90;;;;;;4972644;28;20524;-67
2022/09/21 01:14:02;;;;;;;8.80;4.78;;;9.20;99.90;;;;;;4988776;28;20380;-67
2022/09/21 01:16:37;;;;;;;9.35;3.92;;;9.10;99.90;;;;;;4987524;28;20043;-67
2022/09/21 01:19:21;;;;;;;7.50;3.80;;;9.10;99.90;;;;;;4959892;28;20137;-68
2022/09/21 01:21:57;;;;;;;7.00;3.67;;;9.20;99.90;;;;;;4973160;28;20464;-67
2022/09/21 01:24:38;;;;;;;8.13;3.83;;;9.20;99.90;;;;;;4995384;28;20050;-68
2022/09/21 01:27:27;;;;;;;6.70;4.47;;;9.20;99.70;;;;;;4976055;28;20047;-68
2022/09/21 01:29:58;;;;;;;6.72;4.53;;;9.00;99.90;;;;;;4972776;28;20456;-67
2022/09/21 01:32:37;;;;;;;8.02;4.38;;;8.90;99.90;;;;;;4983935;28;20132;-67
2022/09/21 01:35:19;;;;;;;6.20;4.47;;;9.00;99.90;;;;;;4976356;28;20066;-68
2022/09/21 01:37:57;;;;;;;8.40;4.50;;;9.00;99.90;;;;;;4962578;28;20042;-68
2022/09/21 01:40:52;;;;;;;6.97;4.25;;;8.90;99.90;;;;;;4968649;28;20081;-68
2022/09/21 01:43:24;;;;;;;9.93;5.25;;;8.90;99.90;;;;;;4969866;28;20508;-68
2022/09/21 01:45:51;;;;;;;8.25;5.00;;;8.80;99.90;;;;;;4954030;28;20786;-67
2022/09/21 01:48:17;;;;;;;5.60;4.07;;;8.80;99.90;;;;;;4965421;28;20064;-67
2022/09/21 01:50:47;;;;;;;6.72;4.10;;;8.90;99.90;;;;;;4962863;28;20100;-68
2022/09/21 01:53:23;;;;;;;8.43;4.85;;;8.80;99.90;;;;;;4965397;28;20047;-68
2022/09/21 01:55:57;;;;;;;6.88;4.30;;;8.80;99.90;;;;;;4991339;28;20050;-68
2022/09/21 01:58:43;;;;;;;8.20;4.40;;;8.70;99.90;;;;;;4975495;28;20509;-67
2022/09/21 02:01:10;;;;;;;8.55;4.47;;;8.80;99.90;;;;;;4981239;28;20038;-68
2022/09/21 02:03:37;;;;;;;7.55;4.40;;;8.80;99.90;;;;;;4943162;28;20042;-67
2022/09/21 02:06:04;;;;;;;6.82;4.25;;;8.80;99.90;;;;;;4955613;28;20125;-68
2022/09/21 02:08:31;;;;;;;6.43;3.95;;;8.80;99.90;;;;;;4971519;28;20061;-67
2022/09/21 02:10:56;;;;;;;8.63;3.55;;;8.80;99.90;;;;;;4961411;28;20046;-68
2022/09/21 02:13:24;;;;;;;6.03;3.58;;;8.90;99.90;;;;;;4966357;28;20058;-69
2022/09/21 02:16:09;;;;;;;9.23;5.05;;;8.80;99.90;;;;;;4943003;28;20093;-68
2022/09/21 02:19:11;;;;;;;11.85;6.95;;;8.70;99.90;;;;;;4969956;28;20387;-68
2022/09/21 02:22:08;;;;;;;9.77;5.85;;;8.60;99.90;;;;;;4979048;28;20060;-68
2022/09/21 02:24:34;;;;;;;9.77;5.25;;;8.60;99.90;;;;;;4946884;28;20070;-68
2022/09/21 02:27:06;;;;;;;7.38;5.10;;;8.60;99.90;;;;;;4980598;28;20089;-67
2022/09/21 02:29:46;;;;;;;8.45;5.13;;;8.60;99.90;;;;;;4978089;28;20062;-67
2022/09/21 02:32:26;;;;;;;6.70;4.35;;;8.60;99.90;;;;;;4954678;28;20078;-67
2022/09/21 02:35:42;;;;;;;8.85;4.95;;;8.60;99.90;;;;;;4956107;28;20051;-67
2022/09/21 02:38:10;;;;;;;8.23;4.53;;;8.60;99.90;;;;;;4985638;28;20487;-67
2022/09/21 02:40:42;;;;;;;10.73;5.60;;;8.50;99.90;;;;;;4983475;28;20042;-67
2022/09/21 02:43:25;;;;;;;12.73;5.00;;;8.50;99.90;;;;;;4959350;28;20504;-67
2022/09/21 02:45:56;;;;;;;9.98;5.28;;;8.50;99.90;;;;;;4956231;28;20054;-68
2022/09/21 02:48:37;;;;;;;10.00;5.85;;;8.50;99.90;;;;;;4976606;28;20053;-68
2022/09/21 02:51:10;;;;;;;7.22;5.15;;;8.50;99.90;;;;;;4958373;28;20047;-68
2022/09/21 02:53:36;;;;;;;12.50;5.40;;;8.50;99.90;;;;;;4953494;28;20057;-67
2022/09/21 02:56:05;;;;;;;10.93;5.78;;;8.50;99.90;;;;;;4957742;28;20072;-68
2022/09/21 02:58:35;;;;;;;7.68;5.38;;;8.50;99.90;;;;;;4942569;28;20046;-67
2022/09/21 03:01:02;;;;;;;8.43;4.78;;;8.50;99.90;;;;;;4968217;28;20057;-67
2022/09/21 03:03:28;;;;;;;11.63;5.05;;;8.50;99.90;;;;;;4924224;28;20047;-67
2022/09/21 03:05:54;;;;;;;8.20;5.15;;;8.60;99.90;;;;;;4967246;28;20045;-68
2022/09/21 03:08:20;;;;;;;7.68;4.43;;;8.60;99.90;;;;;;4962280;28;20038;-67
2022/09/21 03:10:48;;;;;;;8.32;4.72;;;8.60;99.90;;;;;;4966077;28;20054;-68
2022/09/21 03:13:14;;;;;;;6.30;4.13;;;8.50;99.90;;;;;;4984018;28;20042;-67
2022/09/21 03:15:40;;;;;;;8.77;4.90;;;8.40;99.90;;;;;;4965321;28;20050;-68
2022/09/21 03:18:08;;;;;;;8.05;4.70;;;8.50;99.90;;;;;;4945935;28;20047;-67
2022/09/21 03:20:35;;;;;;;9.15;4.70;;;8.50;99.90;;;;;;4952923;28;20104;-67
2022/09/21 03:23:01;;;;;;;7.25;4.90;;;8.40;99.90;;;;;;4959534;28;20057;-67
2022/09/21 03:25:28;;;;;;;9.18;4.47;;;8.30;99.90;;;;;;4967156;28;20050;-67
2022/09/21 03:27:54;;;;;;;9.43;4.70;;;8.20;99.90;;;;;;4974412;28;20686;-67
2022/09/21 03:30:23;;;;;;;8.95;4.60;;;8.20;99.90;;;;;;4960902;28;20061;-67
2022/09/21 03:32:50;;;;;;;8.52;4.78;;;8.30;99.90;;;;;;4961916;28;20046;-67
2022/09/21 03:35:16;;;;;;;10.43;4.72;;;8.30;99.90;;;;;;4981222;28;20074;-68
2022/09/21 03:37:42;;;;;;;15.50;5.10;;;8.30;99.90;;;;;;4955195;28;20109;-67
2022/09/21 03:40:08;;;;;;;7.63;4.47;;;8.40;99.90;;;;;;4970966;28;20046;-67
2022/09/21 03:42:34;;;;;;;9.07;4.50;;;8.40;99.90;;;;;;4924552;28;20066;-68
2022/09/21 03:45:01;;;;;;;7.18;4.93;;;8.40;99.90;;;;;;4954299;28;20054;-68
2022/09/21 03:47:28;;;;;;;9.50;4.82;;;8.30;99.90;;;;;;4972361;28;20146;-67
2022/09/21 03:49:53;;;;;;;8.65;5.88;;;8.30;99.90;;;;;;4946212;28;20080;-67
2022/09/21 03:52:19;;;;;;;9.43;4.93;;;8.20;99.90;;;;;;4960947;28;20086;-68
2022/09/21 03:54:45;;;;;;;10.93;6.40;;;8.10;99.90;;;;;;4959617;28;20464;-68
2022/09/21 03:57:11;;;;;;;11.80;5.38;;;8.10;99.90;;;;;;4966662;28;20066;-67
2022/09/21 03:59:37;;;;;;;8.43;5.70;;;8.10;99.90;;;;;;4973333;28;20148;-68
2022/09/21 04:02:03;;;;;;;11.23;6.85;;;8.10;99.90;;;;;;4968851;28;20058;-68
2022/09/21 04:04:28;;;;;;;10.38;7.10;;;8.20;99.90;;;;;;4978873;28;20093;-67
2022/09/21 04:06:54;;;;;;;8.70;5.55;;;8.10;99.90;;;;;;4988036;28;20046;-68
2022/09/21 04:09:20;;;;;;;14.70;6.57;;;8.10;99.90;;;;;;4972312;28;20050;-67
2022/09/21 04:11:47;;;;;;;10.18;5.68;;;8.20;99.90;;;;;;4979702;28;20140;-67
2022/09/21 04:14:12;;;;;;;9.45;5.93;;;8.20;99.90;;;;;;4932167;28;20050;-67
2022/09/21 04:16:38;;;;;;;11.20;6.55;;;8.20;99.90;;;;;;4973397;28;20354;-67
2022/09/21 04:19:04;;;;;;;8.77;5.75;;;8.20;99.90;;;;;;4961509;28;20051;-67
2022/09/21 04:21:29;;;;;;;9.00;5.43;;;8.20;99.90;;;;;;4985202;28;20362;-67
2022/09/21 04:23:55;;;;;;;8.93;5.28;;;8.20;99.90;;;;;;4935947;28;20058;-66
2022/09/21 04:26:26;;;;;;;8.98;5.47;;;8.20;99.90;;;;;;4969683;28;20055;-68
2022/09/21 04:28:52;;;;;;;7.25;5.35;;;8.20;99.90;;;;;;4946035;28;20082;-68
2022/09/21 04:31:17;;;;;;;10.45;5.90;;;8.20;99.90;;;;;;4972135;28;20054;-67
2022/09/21 04:33:43;;;;;;;11.07;5.45;;;8.20;99.90;;;;;;4971909;28;20049;-67
2022/09/21 04:36:09;;;;;;;8.23;5.07;;;8.20;99.90;;;;;;4961444;28;20128;-68
2022/09/21 04:38:35;;;;;;;9.77;4.80;;;8.20;99.90;;;;;;4980770;28;20045;-68
2022/09/21 04:41:02;;;;;;;6.65;4.60;;;8.20;99.90;;;;;;4961727;28;20039;-68
2022/09/21 04:43:27;;;;;;;8.00;4.65;;;8.20;99.90;;;;;;4959322;28;20362;-68
2022/09/21 04:45:53;;;;;;;8.60;4.18;;;8.20;99.90;;;;;;4964909;28;20053;-67
2022/09/21 04:48:19;;;;;;;8.02;4.32;;;8.10;99.90;;;;;;4988574;28;20042;-68
2022/09/21 04:50:48;;;;;;;9.30;4.95;;;8.10;99.90;;;;;;4955540;28;20042;-67
2022/09/21 04:53:14;;;;;;;6.45;4.28;;;8.00;99.90;;;;;;4986574;28;20046;-68
2022/09/21 04:55:40;;;;;;;5.20;3.75;;;7.90;99.90;;;;;;4977161;28;20101;-67
2022/09/21 04:58:05;;;;;;;5.35;3.60;;;7.90;99.90;;;;;;4981438;28;20085;-67
2022/09/21 05:00:33;;;;;;;4.95;3.53;;;7.90;99.90;;;;;;4975177;28;20358;-67
2022/09/21 05:02:58;;;;;;;8.77;4.03;;;7.90;99.90;;;;;;4952907;28;20057;-67
2022/09/21 05:05:24;;;;;;;8.32;4.25;;;7.90;99.80;;;;;;4986961;28;20042;-67
2022/09/21 05:07:50;;;;;;;7.72;4.10;;;7.80;99.90;;;;;;4982071;28;20058;-67
2022/09/21 05:10:15;;;;;;;7.40;4.05;;;7.80;99.90;;;;;;4945530;28;20061;-67
2022/09/21 05:12:42;;;;;;;6.78;4.40;;;7.80;99.90;;;;;;4959730;28;20151;-67
2022/09/21 05:15:10;;;;;;;9.45;3.85;;;7.80;99.90;;;;;;4951596;28;20065;-66
2022/09/21 05:17:36;;;;;;;7.23;4.40;;;7.80;99.90;;;;;;4957620;28;20047;-67
2022/09/21 05:20:02;;;;;;;9.00;4.35;;;7.80;99.90;;;;;;4956537;28;20051;-67
2022/09/21 05:22:28;;;;;;;8.18;4.18;;;7.80;99.90;;;;;;4955717;28;20424;-67
2022/09/21 05:24:54;;;;;;;6.53;3.97;;;7.80;99.90;;;;;;4940908;28;20476;-66
2022/09/21 05:27:20;;;;;;;5.25;4.25;;;7.80;99.90;;;;;;4971295;28;20484;-66
2022/09/21 05:29:47;;;;;;;8.35;4.38;;;7.90;99.90;;;;;;4934485;28;20063;-67
2022/09/21 05:32:25;;;;;;;6.68;4.22;;;7.90;99.90;;;;;;4961126;28;20093;-66
2022/09/21 05:35:21;;;;;;;9.20;4.70;;;7.90;99.90;;;;;;4927453;28;20155;-67
2022/09/21 05:37:55;;;;;;;8.50;4.53;;;7.90;99.90;;;;;;4962013;28;20049;-68
2022/09/21 05:40:21;;;;;;;7.95;4.63;;;7.90;99.90;;;;;;4955657;28;20058;-66
2022/09/21 05:42:48;;;;;;;11.18;4.72;;;7.90;99.90;;;;;;4929323;28;20552;-67
2022/09/21 05:45:15;;;;;;;8.55;5.05;;;7.90;99.90;;;;;;4944892;28;21106;-66
2022/09/21 05:47:53;;;;;;;11.25;4.32;;;7.80;99.90;;;;;;4927200;28;20066;-67
2022/09/21 05:50:33;;;;;;;8.30;5.15;;;7.80;99.90;;;;;;4963489;28;20137;-67
2022/09/21 05:53:49;;;;;;;9.38;4.80;;;7.90;99.90;;;;;;4976193;28;20492;-69
2022/09/21 05:56:38;;;;;;;6.70;3.83;;;7.90;99.90;;;;;;4945018;28;20043;-67
2022/09/21 05:59:07;;;;;;;7.00;4.20;;;8.00;99.90;;;;;;4927637;28;20516;-66
2022/09/21 06:01:54;;;;;;;6.00;4.13;;;8.00;99.90;;;;;;4950689;28;20532;-67
2022/09/21 06:04:20;;;;;;;8.25;4.93;;;8.00;99.90;;;;;;4956079;28;20074;-75
2022/09/21 06:06:48;;;;;;;7.70;4.57;;;8.00;99.90;;;;;;4928762;29;20130;-74
2022/09/21 06:09:14;;;;;;;7.13;4.53;;;8.00;99.90;;;;;;4953891;28;20070;-74
2022/09/21 06:11:41;;;;;;;7.82;5.35;;;8.00;99.90;;;;;;4966699;28;20713;-73
2022/09/21 06:14:07;;;;;;;9.32;5.75;;;8.00;99.90;;;;;;4981277;28;20518;-75
2022/09/21 06:16:40;;;;;;;15.25;5.70;;;8.00;99.90;;;;;;4984308;28;20050;-75
2022/09/21 06:19:05;;;;;;;8.68;5.30;;;8.00;99.90;;;;;;4983071;28;20097;-74
2022/09/21 06:21:32;;;;;;;9.85;5.60;;;8.10;99.90;;;;;;4982533;28;20054;-75
2022/09/21 06:23:57;;;;;;;12.63;6.93;;;8.20;99.90;;;;;;4982995;28;20112;-74
2022/09/21 06:26:23;;;;;;;10.25;6.70;;;8.20;99.90;;;;;;4949670;28;20472;-74
2022/09/21 06:28:49;;;;;;;11.23;6.43;;;8.20;99.90;;;;;;4983483;28;20465;-75
2022/09/21 06:31:14;;;;;;;13.25;7.38;;;8.20;99.90;;;;;;4964687;28;20046;-74
2022/09/21 06:33:43;;;;;;;14.45;6.85;;;8.30;99.90;;;;;;4978546;28;20039;-74
2022/09/21 06:36:09;;;;;;;12.68;7.88;;;8.30;99.90;;;;;;4983030;28;20043;-74
2022/09/21 06:38:35;;;;;;;15.23;8.45;;;8.40;99.90;;;;;;4982449;28;20054;-74
2022/09/21 06:41:02;;;;;;;14.73;8.30;;;8.40;99.90;;;;;;4981956;28;20050;-74
2022/09/21 06:43:27;;;;;;;15.07;7.95;;;8.50;99.90;;;;;;4965329;28;20046;-74
2022/09/21 06:46:00;;;;;;;13.43;8.80;;;8.60;99.90;;;;;;4980482;28;20078;-75
2022/09/21 06:48:26;;;;;;;17.77;9.55;;;8.70;99.90;;;;;;4964365;28;20492;-74
2022/09/21 06:51:00;;;;;;;20.45;9.98;;;8.70;99.90;;;;;;4968772;28;20062;-75
2022/09/21 06:53:26;;;;;;;19.65;11.48;;;8.80;99.90;;;;;;4949945;28;20469;-75
2022/09/21 06:55:52;;;;;;;21.60;12.45;;;8.80;99.90;;;;;;4985624;28;20054;-75
2022/09/21 06:58:18;;;;;;;17.02;12.10;;;8.90;99.90;;;;;;4984784;28;20073;-75
2022/09/21 07:00:44;;;;;;;21.90;12.13;;;8.90;99.90;;;;;;4944126;28;20062;-75
2022/09/21 07:03:11;;;;;;;20.05;12.57;;;9.00;99.90;;;;;;4970829;28;20069;-75
2022/09/21 07:05:37;;;;;;;18.43;12.93;;;9.10;99.90;;;;;;4981455;28;20050;-75
2022/09/21 07:08:03;;;;;;;22.77;11.82;;;9.10;99.90;;;;;;4979690;28;20108;-76
2022/09/21 07:10:29;;;;;;;18.88;11.25;;;9.20;99.90;;;;;;4981738;28;20050;-75
2022/09/21 07:12:54;;;;;;;17.52;10.88;;;9.30;99.90;;;;;;4970896;28;20353;-75
2022/09/21 07:15:20;;;;;;;17.65;10.52;;;9.30;99.90;;;;;;4954952;28;20361;-75
2022/09/21 07:17:46;;;;;;;18.48;11.23;;;9.40;99.90;;;;;;4969133;28;20504;-75
2022/09/21 07:20:13;;;;;;;17.92;11.45;;;9.40;99.90;;;;;;4955103;28;20084;-76
2022/09/21 07:22:39;;;;;;;17.05;11.20;;;9.50;99.90;;;;;;4972258;28;20151;-75
2022/09/21 07:25:05;;;;;;;18.40;10.95;;;9.50;99.90;;;;;;4969969;28;20440;-75
2022/09/21 07:27:31;;;;;;;21.02;11.35;;;9.60;99.90;;;;;;4958861;28;20057;-75
2022/09/21 07:29:57;;;;;;;19.42;12.25;;;9.70;99.90;;;;;;4969079;28;20060;-75
2022/09/21 07:32:23;;;;;;;15.75;10.82;;;9.60;99.90;;;;;;4975620;28;20039;-64
2022/09/21 07:34:49;;;;;;;13.52;9.10;;;9.70;99.90;;;;;;4940164;28;20054;-66
2022/09/21 07:37:15;;;;;;;20.30;11.80;;;9.80;99.90;;;;;;4948547;28;20088;-64
2022/09/21 07:39:40;;;;;;;15.32;10.02;;;9.80;99.90;;;;;;4953852;28;20054;-64
2022/09/21 07:42:06;;;;;;;14.70;10.20;;;9.90;99.90;;;;;;4984787;28;20384;-63
2022/09/21 07:44:33;;;;;;;17.67;9.98;;;9.90;99.90;;;;;;4954341;28;20054;-64
2022/09/21 07:46:59;;;;;;;19.38;9.77;;;10.00;99.90;;;;;;4964382;28;20539;-63
2022/09/21 07:49:25;;;;;;;19.08;11.00;;;10.00;99.90;;;;;;4978872;28;20066;-63
2022/09/21 07:51:51;;;;;;;16.75;9.43;;;10.10;99.90;;;;;;4942571;28;21280;-64
2022/09/21 07:54:17;;;;;;;17.67;9.68;;;10.10;99.90;;;;;;4966740;28;20050;-62
2022/09/21 07:59:04;;;;;;;17.05;9.95;;;10.20;99.90;;;;;;4969159;28;20043;-63
2022/09/21 07:59:31;;;;;;;16.15;9.63;;;10.30;99.90;;;;;;4975507;28;20054;-63
2022/09/21 08:01:59;;;;;;;16.98;10.27;;;10.30;99.90;;;;;;4944776;28;20129;-64
2022/09/21 08:04:24;;;;;;;24.20;10.05;;;10.40;99.90;;;;;;4980425;28;20940;-63
2022/09/21 08:06:51;;;;;;;21.67;9.50;;;10.50;99.90;;;;;;4965918;28;20085;-64
2022/09/21 08:09:17;;;;;;;21.08;8.82;;;10.50;99.90;;;;;;4970906;28;20510;-63
2022/09/21 08:11:43;;;;;;;17.65;9.40;;;10.60;99.90;;;;;;4971430;28;20046;-64
2022/09/21 08:14:09;;;;;;;14.85;9.43;;;10.60;99.90;;;;;;4955293;28;20057;-63
2022/09/21 08:16:36;;;;;;;15.25;9.60;;;10.70;99.90;;;;;;4979817;28;21667;-63
2022/09/21 08:19:04;;;;;;;20.75;8.82;;;10.70;99.90;;;;;;4962271;28;20061;-62
2022/09/21 08:21:29;;;;;;;17.45;8.63;;;10.80;99.90;;;;;;4976276;28;20842;-63
2022/09/21 08:23:56;;;;;;;13.50;9.35;;;10.80;99.90;;;;;;4953161;28;20130;-63
2022/09/21 08:26:23;;;;;;;12.48;7.80;;;10.90;99.90;;;;;;4965540;28;20152;-63
2022/09/21 08:28:50;;;;;;;17.45;8.88;;;11.00;99.90;;;;;;4966282;28;20046;-64
2022/09/21 08:31:20;;;;;;;16.73;8.60;;;11.10;99.90;;;;;;4974339;28;20518;-63
2022/09/21 08:33:47;;;;;;;17.42;9.68;;;11.10;99.90;;;;;;4953674;28;20550;-63
2022/09/21 08:36:13;;;;;;;16.42;8.68;;;11.10;99.90;;;;;;4975150;28;20065;-64
2022/09/21 08:38:39;;;;;;;17.15;8.98;;;11.20;99.90;;;;;;4968861;28;20054;-63
2022/09/21 08:41:27;;;;;;;15.23;8.43;;;11.30;99.90;;;;;;4954285;28;20420;-63
2022/09/21 08:43:56;;;;;;;16.42;9.15;;;11.30;99.90;;;;;;4961831;28;20050;-63
2022/09/21 08:46:25;;;;;;;20.38;8.90;;;11.40;99.90;;;;;;4961556;28;20079;-63
2022/09/21 08:49:08;;;;;;;13.20;7.88;;;11.40;99.90;;;;;;4961427;28;20142;-63
2022/09/21 08:51:49;;;;;;;20.80;8.38;;;11.50;99.90;;;;;;4977813;28;20043;-63
2022/09/21 08:54:19;;;;;;;16.20;7.90;;;11.60;99.90;;;;;;4956769;28;20496;-63
2022/09/21 08:56:58;;;;;;;15.65;7.60;;;11.70;99.90;;;;;;4969031;28;20126;-64
2022/09/21 08:59:23;;;;;;;16.70;7.53;;;11.70;99.90;;;;;;4953849;28;20075;-63
2022/09/21 09:02:10;;;;;;;17.58;8.02;;;11.70;99.90;;;;;;4927644;28;20089;-63
2022/09/21 09:04:44;;;;;;;13.75;7.68;;;11.80;99.90;;;;;;4978079;28;20098;-64
2022/09/21 09:07:20;;;;;;;17.90;7.18;;;11.90;99.90;;;;;;4959771;28;20051;-63
2022/09/21 09:10:19;;;;;;;17.35;6.65;;;12.00;99.90;;;;;;4977069;28;20607;-63
2022/09/21 09:13:12;;;;;;;15.43;6.00;;;12.00;99.90;;;;;;4973047;28;20112;-64
2022/09/21 09:15:51;;;;;;;15.80;6.05;;;12.10;99.90;;;;;;4976383;28;20054;-64
2022/09/21 09:18:43;;;;;;;14.27;6.03;;;12.20;99.90;;;;;;4967524;28;20665;-63
2022/09/21 09:21:15;;;;;;;15.05;5.25;;;12.30;99.70;;;;;;4969741;28;20046;-62
2022/09/21 09:23:45;;;;;;;14.85;5.97;;;12.40;99.80;;;;;;4961509;28;20100;-63
2022/09/21 09:26:17;;;;;;;12.18;5.20;;;12.50;99.60;;;;;;4978893;28;20475;-63
2022/09/21 09:29:02;;;;;;;16.15;5.20;;;12.60;99.10;;;;;;4942219;28;20475;-63
2022/09/21 09:31:31;;;;;;;13.27;4.72;;;12.70;98.20;;;;;;4964628;28;20050;-63
2022/09/21 09:34:23;;;;;;;11.90;4.00;;;12.80;97.00;;;;;;4960226;28;20054;-63
2022/09/21 09:37:12;;;;;;;13.82;4.20;;;12.90;98.40;;;;;;4965967;28;20043;-63
2022/09/21 09:39:38;;;;;;;16.17;5.30;;;13.10;98.10;;;;;;4961750;28;20057;-64
2022/09/21 09:42:30;;;;;;;12.75;5.03;;;13.20;97.70;;;;;;4968705;28;20050;-63
2022/09/21 09:45:20;;;;;;;11.65;3.35;;;13.40;98.10;;;;;;4969320;28;20145;-63
2022/09/21 09:48:20;;;;;;;8.55;3.30;;;13.40;94.60;;;;;;4981157;28;20341;-63
2022/09/21 09:50:46;;;;;;;12.48;3.92;;;13.50;95.60;;;;;;4974239;28;20057;-63
2022/09/21 09:53:14;;;;;;;11.02;3.53;;;13.70;96.40;;;;;;4947801;28;20464;-64
2022/09/21 09:55:42;;;;;;;9.27;3.45;;;13.80;96.00;;;;;;4976528;28;20536;-63
2022/09/21 09:58:45;;;;;;;10.35;4.03;;;14.00;95.70;;;;;;4946688;28;20046;-64
2022/09/21 10:01:37;;;;;;;13.93;4.38;;;14.10;95.20;;;;;;4967061;28;20046;-64
2022/09/21 10:04:08;;;;;;;11.00;4.38;;;14.30;94.60;;;;;;4968632;28;20041;-64
2022/09/21 10:06:34;;;;;;;10.30;4.47;;;14.40;95.40;;;;;;4974721;28;20176;-63
2022/09/21 10:08:59;;;;;;;8.98;3.25;;;14.50;95.20;;;;;;4978631;28;20571;-63
2022/09/21 10:11:36;;;;;;;10.90;3.80;;;14.60;92.30;;;;;;4965094;28;20042;-64
2022/09/21 10:14:15;;;;;;;10.95;4.72;;;14.60;93.00;;;;;;4959294;28;20074;-63
2022/09/21 10:16:41;;;;;;;11.13;4.10;;;14.70;94.10;;;;;;4969601;28;20154;-63
2022/09/21 10:19:22;;;;;;;12.18;3.67;;;14.90;94.30;;;;;;4951009;28;20046;-63
2022/09/21 10:21:48;;;;;;;15.48;3.92;;;15.10;94.40;;;;;;4975695;28;20538;-63
2022/09/21 10:24:25;;;;;;;11.20;3.60;;;15.30;93.90;;;;;;4969714;28;20125;-64
2022/09/21 10:26:55;;;;;;;11.85;4.43;;;15.30;91.60;;;;;;4975224;28;20061;-63
2022/09/21 10:29:20;;;;;;;12.60;3.22;;;15.30;91.70;;;;;;4954230;28;20481;-63
2022/09/21 10:32:00;;;;;;;9.68;3.58;;;15.40;91.00;;;;;;4971904;28;20077;-63
2022/09/21 10:34:33;;;;;;;11.90;3.22;;;15.50;90.80;;;;;;4963783;28;20528;-63
2022/09/21 10:37:01;;;;;;;9.48;2.80;;;15.80;92.20;;;;;;4970559;28;20046;-64
2022/09/21 10:39:34;;;;;;;11.98;3.30;;;16.00;91.40;;;;;;4958586;28;20428;-64
2022/09/21 10:42:04;;;;;;;11.38;3.42;;;16.20;90.70;;;;;;4946044;28;20592;-68
2022/09/21 10:44:42;;;;;;;10.95;2.92;;;16.30;91.40;;;;;;4951432;28;20054;-68
2022/09/21 10:47:22;;;;;;;8.55;2.65;;;16.40;89.30;;;;;;4976689;28;20130;-68
2022/09/21 10:49:52;;;;;;;8.93;2.90;;;16.30;90.70;;;;;;4981782;28;20050;-68
2022/09/21 10:52:24;;;;;;;13.48;3.13;;;16.30;90.50;;;;;;4953222;28;20733;-68
2022/09/21 10:54:51;;;;;;;8.88;2.40;;;17.60;90.20;;;;;;4963595;28;20479;-69
2022/09/21 10:57:18;;;;;;;10.93;2.30;;;21.50;74.30;;;;;;4993805;28;20109;-69
2022/09/21 10:59:44;;;;;;;9.15;2.55;;;23.50;62.70;;;;;;4967986;28;20058;-70
2022/09/21 11:02:31;;;;;;;7.82;1.80;;;22.20;61.90;;;;;;4962825;28;20061;-69
2022/09/21 11:05:12;;;;;;;5.97;1.55;;;19.70;71.60;;;;;;4979537;28;20055;-68
2022/09/21 11:07:50;;;;;;;7.68;1.52;;;18.40;75.30;;;;;;4944550;28;20443;-68
2022/09/21 11:10:29;;;;;;;5.03;1.50;;;17.40;79.20;;;;;;4945784;28;20050;-68
2022/09/21 11:13:05;;;;;;;10.45;1.65;;;16.90;81.70;;;;;;4952904;28;20117;-68
2022/09/21 11:16:07;;;;;;;8.27;1.55;;;16.50;83.30;;;;;;4975830;28;20045;-68
2022/09/21 11:18:54;;;;;;;8.60;1.33;;;16.20;82.80;;;;;;4974903;28;20042;-67
2022/09/21 11:21:40;;;;;;;7.32;1.50;;;16.00;83.50;;;;;;4967980;28;20384;-68
2022/09/21 11:24:36;;;;;;;5.70;1.70;;;15.90;85.40;;;;;;4967544;28;20081;-68
2022/09/21 11:27:17;;;;;;;11.75;1.77;;;16.10;86.80;;;;;;4978674;28;20189;-67
2022/09/21 11:30:06;;;;;;;6.63;1.52;;;16.40;87.00;;;;;;4967022;28;20062;-68
2022/09/21 11:33:05;;;;;;;8.32;1.73;;;17.00;86.50;;;;;;4976488;28;20046;-68
2022/09/21 11:35:41;;;;;;;8.25;1.83;;;17.30;82.00;;;;;;4964791;28;20034;-68
2022/09/21 11:38:29;;;;;;;4.93;1.42;;;17.70;80.90;;;;;;4958237;28;20085;-68
2022/09/21 11:41:20;;;;;;;7.60;1.88;;;18.00;81.30;;;;;;4965087;28;20496;-68
2022/09/21 11:44:20;;;;;;;6.00;1.20;;;18.30;80.30;;;;;;4982865;28;20456;-68
2022/09/21 11:47:17;;;;;;;5.78;1.08;;;18.30;82.40;;;;;;4977550;28;20050;-68
2022/09/21 11:50:02;;;;;;;5.13;1.23;;;18.20;80.20;;;;;;4960369;28;20621;-67
2022/09/21 11:52:53;;;;;;;7.35;1.67;;;18.00;81.50;;;;;;4975001;28;20042;-67
2022/09/21 11:55:43;;;;;;;12.02;1.60;;;17.70;79.20;;;;;;4974931;28;20381;-68
2022/09/21 11:58:17;;;;;;;6.93;1.30;;;17.30;79.60;;;;;;4972793;28;20122;-63
2022/09/21 12:01:11;;;;;;;6.82;1.35;;;17.10;80.30;;;;;;4964095;28;20046;-63
2022/09/21 12:03:40;;;;;;;8.15;1.48;;;17.00;81.00;;;;;;4965536;28;20055;-63
2022/09/21 12:06:10;;;;;;;7.05;1.30;;;17.30;79.90;;;;;;4975149;28;20046;-63
2022/09/21 12:09:01;;;;;;;7.80;1.67;;;17.70;77.90;;;;;;4992326;28;20058;-63
2022/09/21 12:11:36;;;;;;;7.47;1.85;;;18.00;77.90;;;;;;4984407;28;20408;-64
2022/09/21 12:14:21;;;;;;;6.85;1.05;;;18.30;79.80;;;;;;4976735;28;20618;-63
2022/09/21 12:17:29;;;;;;;5.05;1.10;;;18.30;68.50;;;;;;4960781;28;20046;-63
2022/09/21 12:20:20;;;;;;;4.13;1.10;;;18.20;68.30;;;;;;4947602;28;20104;-63
2022/09/21 12:22:48;;;;;;;4.13;0.73;;;18.20;69.10;;;;;;4940201;28;20038;-62
2022/09/21 12:25:20;;;;;;;4.75;0.82;;;18.10;71.30;;;;;;4941414;28;20073;-64
2022/09/21 12:28:09;;;;;;;5.55;0.90;;;18.00;71.80;;;;;;4964215;28;20053;-63
2022/09/21 12:30:35;;;;;;;4.95;1.20;;;17.70;69.80;;;;;;4968053;28;20104;-63
2022/09/21 12:33:20;;;;;;;8.52;1.40;;;17.60;73.80;;;;;;4963216;28;20058;-62
2022/09/21 12:35:54;;;;;;;4.40;1.10;;;17.50;74.50;;;;;;4964510;28;20560;-63
2022/09/21 12:39:00;;;;;;;7.85;1.60;;;17.40;75.20;;;;;;4970761;28;20046;-62
2022/09/21 12:41:33;;;;;;;5.53;0.95;;;17.20;76.10;;;;;;4892007;29;20454;-63
2022/09/21 12:44:54;;;;;;;4.97;1.13;;;17.20;76.90;;;;;;4966553;28;20121;-65
2022/09/21 12:47:46;;;;;;;3.40;0.68;;;18.80;70.00;;;;;;4959221;28;20057;-64
2022/09/21 12:50:43;;;;;;;4.40;1.00;;;19.10;61.00;;;;;;4946913;28;20642;-67
2022/09/21 12:53:13;;;;;;;3.42;0.90;;;18.60;64.70;;;;;;4964181;28;20368;-65
2022/09/21 12:55:47;;;;;;;4.35;0.90;;;17.80;68.50;;;;;;4962387;28;20042;-67
2022/09/21 12:58:50;;;;;;;3.47;0.90;;;17.30;70.40;;;;;;4984189;28;20536;-66
2022/09/21 13:01:32;;;;;;;4.15;1.00;;;16.90;73.70;;;;;;4973007;28;20509;-66
2022/09/21 13:04:24;;;;;;;4.53;1.15;;;16.70;73.10;;;;;;4959125;28;20082;-67
2022/09/21 13:07:02;;;;;;;10.10;1.35;;;16.50;74.30;;;;;;4974494;28;20046;-66
2022/09/21 13:09:28;;;;;;;6.57;0.95;;;16.30;74.70;;;;;;4963811;28;20100;-66
2022/09/21 13:11:56;;;;;;;3.88;0.93;;;16.20;75.80;;;;;;4964681;28;20051;-65
2022/09/21 13:14:23;;;;;;;2.85;0.63;;;16.10;75.10;;;;;;4978902;28;20559;-66
2022/09/21 13:17:02;;;;;;;3.42;0.80;;;16.00;74.40;;;;;;4969955;28;20046;-66